Accueil
METAR-TAF:

METAR-TAF

Aéroports :

Bandirma, Turquie

latitude: 40-19N, longitude: 027-58E, altitude: 51 m

METAR: absent

Heure: 02:47 (23:47 UTC)

Prévision

Le bulletin a été fait il y a 1 heure et 7 minutes, à 22:40 UTC
Prévision valable du 22 à 00 UTC au 22 à 09 UTC
Vent 12 kt de nord/nord-est
Visibilité 10 km ou plus
Quelques nuages à une hauteur de 1500 ft
Nuages épars à une hauteur de 3500 ft
Temporairement
du 22 à 04 UTC au 22 à 07 UTC
Visibilité: 4000 m
brume

TAF: LTBG 212240Z 2200/2209 03012KT 9999 FEW015 SCT035 TEMPO 2204/2207 4000 BR

Observations et prévisions météorologiques de plus de 4000 aéroports (messages METAR et TAF).

Les stations disponibles sont représentées par des disques jaunes et rouges sur la carte.

Passer la souris dessus pour voir le nom de la station.

Cliquer dessus pour voir les observations et prévisions météorologiques.

Pour changer de carte: cliquez sur les boutons verts avec une croix noire pour zoomer, sur le bouton vert avec un tiret pour effectuer un zoom arrière, ou sur les flèches vertes pour les cartes adjacentes.


METAR-TAF: